sensor_id;sensor_type;location;lat;lon;timestamp;P1;durP1;ratioP1;P2;durP2;ratioP2
27632;SDS011;15046;50.930;13.334;2023-11-19T00:00:31;7.63;;;5.30;;
27632;SDS011;15046;50.930;13.334;2023-11-19T00:02:57;7.55;;;4.95;;
27632;SDS011;15046;50.930;13.334;2023-11-19T00:05:22;6.20;;;4.18;;
27632;SDS011;15046;50.930;13.334;2023-11-19T00:07:48;6.50;;;4.10;;
27632;SDS011;15046;50.930;13.334;2023-11-19T00:10:15;7.50;;;3.97;;
27632;SDS011;15046;50.930;13.334;2023-11-19T00:12:45;5.50;;;3.40;;
27632;SDS011;15046;50.930;13.334;2023-11-19T00:15:12;7.05;;;2.88;;
27632;SDS011;15046;50.930;13.334;2023-11-19T00:17:38;4.43;;;2.40;;
27632;SDS011;15046;50.930;13.334;2023-11-19T00:20:06;3.47;;;2.05;;
27632;SDS011;15046;50.930;13.334;2023-11-19T00:22:32;4.80;;;2.22;;
27632;SDS011;15046;50.930;13.334;2023-11-19T00:24:58;3.60;;;1.77;;
27632;SDS011;15046;50.930;13.334;2023-11-19T00:27:24;2.95;;;1.80;;
27632;SDS011;15046;50.930;13.334;2023-11-19T00:29:51;3.22;;;1.67;;
27632;SDS011;15046;50.930;13.334;2023-11-19T00:32:17;3.13;;;1.58;;
27632;SDS011;15046;50.930;13.334;2023-11-19T00:34:45;2.65;;;1.67;;
27632;SDS011;15046;50.930;13.334;2023-11-19T00:37:13;2.92;;;1.83;;
27632;SDS011;15046;50.930;13.334;2023-11-19T00:39:40;2.88;;;1.83;;
27632;SDS011;15046;50.930;13.334;2023-11-19T00:42:09;3.22;;;1.83;;
27632;SDS011;15046;50.930;13.334;2023-11-19T00:47:04;4.30;;;2.35;;
27632;SDS011;15046;50.930;13.334;2023-11-19T00:49:30;3.30;;;2.08;;
27632;SDS011;15046;50.930;13.334;2023-11-19T00:51:58;5.03;;;2.33;;
27632;SDS011;15046;50.930;13.334;2023-11-19T00:54:24;3.15;;;2.10;;
27632;SDS011;15046;50.930;13.334;2023-11-19T00:56:54;3.95;;;2.10;;
27632;SDS011;15046;50.930;13.334;2023-11-19T00:59:20;4.60;;;2.25;;
27632;SDS011;15046;50.930;13.334;2023-11-19T01:01:46;4.57;;;2.55;;
27632;SDS011;15046;50.930;13.334;2023-11-19T01:06:41;5.38;;;2.70;;
27632;SDS011;15046;50.930;13.334;2023-11-19T01:09:07;4.15;;;2.65;;
27632;SDS011;15046;50.930;13.334;2023-11-19T01:11:34;3.33;;;2.15;;
27632;SDS011;15046;50.930;13.334;2023-11-19T01:14:00;3.80;;;2.33;;
27632;SDS011;15046;50.930;13.334;2023-11-19T01:16:25;5.82;;;2.70;;
27632;SDS011;15046;50.930;13.334;2023-11-19T01:18:52;4.68;;;2.60;;
27632;SDS011;15046;50.930;13.334;2023-11-19T01:21:18;4.38;;;2.40;;
27632;SDS011;15046;50.930;13.334;2023-11-19T01:23:43;5.10;;;2.95;;
27632;SDS011;15046;50.930;13.334;2023-11-19T01:26:10;4.40;;;2.25;;
27632;SDS011;15046;50.930;13.334;2023-11-19T01:28:38;4.00;;;2.45;;
27632;SDS011;15046;50.930;13.334;2023-11-19T01:31:12;4.32;;;2.60;;
27632;SDS011;15046;50.930;13.334;2023-11-19T01:33:40;3.85;;;2.28;;
27632;SDS011;15046;50.930;13.334;2023-11-19T01:36:07;6.05;;;2.33;;
27632;SDS011;15046;50.930;13.334;2023-11-19T01:38:33;3.35;;;1.98;;
27632;SDS011;15046;50.930;13.334;2023-11-19T01:41:00;3.35;;;2.13;;
27632;SDS011;15046;50.930;13.334;2023-11-19T01:46:04;3.78;;;2.13;;
27632;SDS011;15046;50.930;13.334;2023-11-19T01:48:34;3.17;;;2.00;;
27632;SDS011;15046;50.930;13.334;2023-11-19T01:51:04;3.65;;;2.10;;
27632;SDS011;15046;50.930;13.334;2023-11-19T01:53:32;2.88;;;1.65;;
27632;SDS011;15046;50.930;13.334;2023-11-19T01:56:00;4.07;;;1.88;;
27632;SDS011;15046;50.930;13.334;2023-11-19T01:58:26;3.90;;;2.00;;
27632;SDS011;15046;50.930;13.334;2023-11-19T02:00:54;3.67;;;1.92;;
27632;SDS011;15046;50.930;13.334;2023-11-19T02:03:21;3.08;;;1.65;;
27632;SDS011;15046;50.930;13.334;2023-11-19T02:05:48;3.30;;;1.85;;
27632;SDS011;15046;50.930;13.334;2023-11-19T02:08:15;4.82;;;2.15;;
27632;SDS011;15046;50.930;13.334;2023-11-19T02:10:41;3.17;;;1.90;;
27632;SDS011;15046;50.930;13.334;2023-11-19T02:13:08;3.17;;;1.88;;
27632;SDS011;15046;50.930;13.334;2023-11-19T02:15:35;5.00;;;1.92;;
27632;SDS011;15046;50.930;13.334;2023-11-19T02:18:19;3.20;;;2.00;;
27632;SDS011;15046;50.930;13.334;2023-11-19T02:20:47;3.72;;;1.80;;
27632;SDS011;15046;50.930;13.334;2023-11-19T02:23:17;3.78;;;2.17;;
27632;SDS011;15046;50.930;13.334;2023-11-19T02:25:45;3.47;;;2.10;;
27632;SDS011;15046;50.930;13.334;2023-11-19T02:28:16;3.67;;;1.75;;
27632;SDS011;15046;50.930;13.334;2023-11-19T02:30:43;3.42;;;1.90;;
27632;SDS011;15046;50.930;13.334;2023-11-19T02:33:09;3.80;;;1.95;;
27632;SDS011;15046;50.930;13.334;2023-11-19T02:35:34;3.50;;;1.88;;
27632;SDS011;15046;50.930;13.334;2023-11-19T02:38:00;4.18;;;1.67;;
27632;SDS011;15046;50.930;13.334;2023-11-19T02:40:28;3.42;;;1.70;;
27632;SDS011;15046;50.930;13.334;2023-11-19T02:42:55;2.95;;;1.80;;
27632;SDS011;15046;50.930;13.334;2023-11-19T02:45:22;4.18;;;2.10;;
27632;SDS011;15046;50.930;13.334;2023-11-19T02:47:49;3.47;;;1.85;;
27632;SDS011;15046;50.930;13.334;2023-11-19T02:50:15;2.92;;;1.80;;
27632;SDS011;15046;50.930;13.334;2023-11-19T02:52:41;4.70;;;2.30;;
27632;SDS011;15046;50.930;13.334;2023-11-19T02:55:08;3.45;;;1.85;;
27632;SDS011;15046;50.930;13.334;2023-11-19T02:57:37;2.55;;;1.40;;
27632;SDS011;15046;50.930;13.334;2023-11-19T03:00:17;3.10;;;1.60;;
27632;SDS011;15046;50.930;13.334;2023-11-19T03:02:48;3.45;;;1.77;;
27632;SDS011;15046;50.930;13.334;2023-11-19T03:05:23;3.15;;;2.05;;
27632;SDS011;15046;50.930;13.334;2023-11-19T03:07:49;2.65;;;1.40;;
27632;SDS011;15046;50.930;13.334;2023-11-19T03:10:15;3.67;;;1.67;;
27632;SDS011;15046;50.930;13.334;2023-11-19T03:12:41;3.55;;;1.48;;
27632;SDS011;15046;50.930;13.334;2023-11-19T03:15:08;2.28;;;1.40;;
27632;SDS011;15046;50.930;13.334;2023-11-19T03:17:38;2.85;;;1.20;;
27632;SDS011;15046;50.930;13.334;2023-11-19T03:22:32;2.35;;;1.27;;
27632;SDS011;15046;50.930;13.334;2023-11-19T03:24:59;2.55;;;1.45;;
27632;SDS011;15046;50.930;13.334;2023-11-19T03:27:25;2.78;;;1.40;;
27632;SDS011;15046;50.930;13.334;2023-11-19T03:29:50;2.13;;;1.20;;
27632;SDS011;15046;50.930;13.334;2023-11-19T03:32:16;3.17;;;1.50;;
27632;SDS011;15046;50.930;13.334;2023-11-19T03:34:42;2.97;;;1.60;;
27632;SDS011;15046;50.930;13.334;2023-11-19T03:37:08;2.20;;;1.20;;
27632;SDS011;15046;50.930;13.334;2023-11-19T03:39:33;2.38;;;1.27;;
27632;SDS011;15046;50.930;13.334;2023-11-19T03:41:59;2.63;;;1.33;;
27632;SDS011;15046;50.930;13.334;2023-11-19T03:44:26;2.72;;;1.45;;
27632;SDS011;15046;50.930;13.334;2023-11-19T03:46:52;1.77;;;1.10;;
27632;SDS011;15046;50.930;13.334;2023-11-19T03:49:18;2.30;;;1.20;;
27632;SDS011;15046;50.930;13.334;2023-11-19T03:51:43;1.85;;;1.13;;
27632;SDS011;15046;50.930;13.334;2023-11-19T03:54:09;2.03;;;1.20;;
27632;SDS011;15046;50.930;13.334;2023-11-19T03:56:36;2.70;;;1.20;;
27632;SDS011;15046;50.930;13.334;2023-11-19T03:59:02;1.75;;;1.00;;
27632;SDS011;15046;50.930;13.334;2023-11-19T04:01:28;2.53;;;1.15;;
27632;SDS011;15046;50.930;13.334;2023-11-19T04:03:54;2.17;;;1.10;;
27632;SDS011;15046;50.930;13.334;2023-11-19T04:06:21;1.17;;;0.70;;
27632;SDS011;15046;50.930;13.334;2023-11-19T04:08:46;1.50;;;0.70;;
27632;SDS011;15046;50.930;13.334;2023-11-19T04:11:12;1.45;;;0.93;;
27632;SDS011;15046;50.930;13.334;2023-11-19T04:13:38;1.95;;;1.08;;
27632;SDS011;15046;50.930;13.334;2023-11-19T04:16:04;1.20;;;0.80;;
27632;SDS011;15046;50.930;13.334;2023-11-19T04:18:30;2.25;;;1.17;;
27632;SDS011;15046;50.930;13.334;2023-11-19T04:20:57;2.13;;;1.20;;
27632;SDS011;15046;50.930;13.334;2023-11-19T04:23:23;1.60;;;1.05;;
27632;SDS011;15046;50.930;13.334;2023-11-19T04:25:50;2.03;;;1.00;;
27632;SDS011;15046;50.930;13.334;2023-11-19T04:28:16;1.50;;;0.95;;
27632;SDS011;15046;50.930;13.334;2023-11-19T04:30:42;1.50;;;0.90;;
27632;SDS011;15046;50.930;13.334;2023-11-19T04:33:09;1.30;;;0.75;;
27632;SDS011;15046;50.930;13.334;2023-11-19T04:35:35;2.60;;;1.00;;
27632;SDS011;15046;50.930;13.334;2023-11-19T04:38:01;3.97;;;0.90;;
27632;SDS011;15046;50.930;13.334;2023-11-19T04:40:27;2.03;;;0.90;;
27632;SDS011;15046;50.930;13.334;2023-11-19T04:42:53;2.58;;;0.98;;
27632;SDS011;15046;50.930;13.334;2023-11-19T04:45:18;1.25;;;0.68;;
27632;SDS011;15046;50.930;13.334;2023-11-19T04:47:45;1.90;;;1.10;;
27632;SDS011;15046;50.930;13.334;2023-11-19T04:50:11;1.45;;;0.75;;
27632;SDS011;15046;50.930;13.334;2023-11-19T04:52:37;2.28;;;0.70;;
27632;SDS011;15046;50.930;13.334;2023-11-19T04:55:10;1.77;;;0.90;;
27632;SDS011;15046;50.930;13.334;2023-11-19T04:57:39;1.17;;;0.68;;
27632;SDS011;15046;50.930;13.334;2023-11-19T05:00:05;1.00;;;0.65;;
27632;SDS011;15046;50.930;13.334;2023-11-19T05:02:33;1.77;;;0.80;;
27632;SDS011;15046;50.930;13.334;2023-11-19T05:04:59;1.95;;;0.90;;
27632;SDS011;15046;50.930;13.334;2023-11-19T05:07:26;1.65;;;0.68;;
27632;SDS011;15046;50.930;13.334;2023-11-19T05:09:51;1.42;;;0.80;;
27632;SDS011;15046;50.930;13.334;2023-11-19T05:12:17;1.45;;;0.80;;
27632;SDS011;15046;50.930;13.334;2023-11-19T05:14:43;1.17;;;0.70;;
27632;SDS011;15046;50.930;13.334;2023-11-19T05:17:14;1.15;;;0.60;;
27632;SDS011;15046;50.930;13.334;2023-11-19T05:19:40;1.30;;;0.70;;
27632;SDS011;15046;50.930;13.334;2023-11-19T05:22:06;0.90;;;0.70;;
27632;SDS011;15046;50.930;13.334;2023-11-19T05:24:32;3.08;;;0.85;;
27632;SDS011;15046;50.930;13.334;2023-11-19T05:26:58;1.00;;;0.68;;
27632;SDS011;15046;50.930;13.334;2023-11-19T05:29:24;1.60;;;0.82;;
27632;SDS011;15046;50.930;13.334;2023-11-19T05:31:50;1.02;;;0.60;;
27632;SDS011;15046;50.930;13.334;2023-11-19T05:34:15;1.33;;;0.80;;
27632;SDS011;15046;50.930;13.334;2023-11-19T05:36:41;2.13;;;1.08;;
27632;SDS011;15046;50.930;13.334;2023-11-19T05:39:07;2.05;;;1.00;;
27632;SDS011;15046;50.930;13.334;2023-11-19T05:41:33;4.22;;;1.83;;
27632;SDS011;15046;50.930;13.334;2023-11-19T05:43:59;3.78;;;1.45;;
27632;SDS011;15046;50.930;13.334;2023-11-19T05:46:25;2.22;;;1.10;;
27632;SDS011;15046;50.930;13.334;2023-11-19T05:48:52;2.58;;;1.20;;
27632;SDS011;15046;50.930;13.334;2023-11-19T05:51:17;2.00;;;0.80;;
27632;SDS011;15046;50.930;13.334;2023-11-19T05:53:43;1.75;;;0.80;;
27632;SDS011;15046;50.930;13.334;2023-11-19T05:56:10;1.33;;;0.70;;
27632;SDS011;15046;50.930;13.334;2023-11-19T05:58:36;0.55;;;0.50;;
27632;SDS011;15046;50.930;13.334;2023-11-19T06:01:04;1.42;;;0.60;;
27632;SDS011;15046;50.930;13.334;2023-11-19T06:03:32;2.35;;;0.55;;
27632;SDS011;15046;50.930;13.334;2023-11-19T06:05:58;1.63;;;0.70;;
27632;SDS011;15046;50.930;13.334;2023-11-19T06:08:24;0.88;;;0.70;;
27632;SDS011;15046;50.930;13.334;2023-11-19T06:10:52;0.93;;;0.60;;
27632;SDS011;15046;50.930;13.334;2023-11-19T06:13:18;0.98;;;0.68;;
27632;SDS011;15046;50.930;13.334;2023-11-19T06:15:44;0.85;;;0.55;;
27632;SDS011;15046;50.930;13.334;2023-11-19T06:18:10;1.13;;;0.75;;
27632;SDS011;15046;50.930;13.334;2023-11-19T06:20:40;2.13;;;0.47;;
27632;SDS011;15046;50.930;13.334;2023-11-19T06:23:06;1.35;;;0.70;;
27632;SDS011;15046;50.930;13.334;2023-11-19T06:25:32;0.82;;;0.55;;
27632;SDS011;15046;50.930;13.334;2023-11-19T06:27:58;1.95;;;0.65;;
27632;SDS011;15046;50.930;13.334;2023-11-19T06:30:24;0.88;;;0.50;;
27632;SDS011;15046;50.930;13.334;2023-11-19T06:32:50;1.48;;;0.85;;
27632;SDS011;15046;50.930;13.334;2023-11-19T06:35:16;1.05;;;0.60;;
27632;SDS011;15046;50.930;13.334;2023-11-19T06:37:42;1.23;;;0.65;;
27632;SDS011;15046;50.930;13.334;2023-11-19T06:40:08;2.17;;;0.77;;
27632;SDS011;15046;50.930;13.334;2023-11-19T06:42:34;1.20;;;0.50;;
27632;SDS011;15046;50.930;13.334;2023-11-19T06:45:01;1.08;;;0.60;;
27632;SDS011;15046;50.930;13.334;2023-11-19T06:47:28;3.38;;;0.80;;
27632;SDS011;15046;50.930;13.334;2023-11-19T06:49:54;1.40;;;0.80;;
27632;SDS011;15046;50.930;13.334;2023-11-19T06:52:20;1.23;;;0.60;;
27632;SDS011;15046;50.930;13.334;2023-11-19T06:54:46;2.17;;;1.00;;
27632;SDS011;15046;50.930;13.334;2023-11-19T06:57:12;1.77;;;0.63;;
27632;SDS011;15046;50.930;13.334;2023-11-19T06:59:38;0.73;;;0.60;;
27632;SDS011;15046;50.930;13.334;2023-11-19T07:02:04;2.40;;;0.68;;
27632;SDS011;15046;50.930;13.334;2023-11-19T07:04:31;3.25;;;0.65;;
27632;SDS011;15046;50.930;13.334;2023-11-19T07:06:58;1.75;;;0.80;;
27632;SDS011;15046;50.930;13.334;2023-11-19T07:09:25;1.35;;;0.68;;
27632;SDS011;15046;50.930;13.334;2023-11-19T07:11:51;2.22;;;0.65;;
27632;SDS011;15046;50.930;13.334;2023-11-19T07:14:19;1.00;;;0.70;;
27632;SDS011;15046;50.930;13.334;2023-11-19T07:16:45;1.15;;;0.60;;
27632;SDS011;15046;50.930;13.334;2023-11-19T07:19:11;2.88;;;0.65;;
27632;SDS011;15046;50.930;13.334;2023-11-19T07:21:37;0.88;;;0.50;;
27632;SDS011;15046;50.930;13.334;2023-11-19T07:24:09;2.72;;;0.70;;
27632;SDS011;15046;50.930;13.334;2023-11-19T07:26:40;1.43;;;0.70;;
27632;SDS011;15046;50.930;13.334;2023-11-19T07:29:08;1.75;;;0.80;;
27632;SDS011;15046;50.930;13.334;2023-11-19T07:31:33;1.85;;;0.68;;
27632;SDS011;15046;50.930;13.334;2023-11-19T07:33:59;1.67;;;0.85;;
27632;SDS011;15046;50.930;13.334;2023-11-19T07:36:25;1.73;;;0.75;;
27632;SDS011;15046;50.930;13.334;2023-11-19T07:38:50;2.35;;;0.68;;
27632;SDS011;15046;50.930;13.334;2023-11-19T07:41:16;3.50;;;1.38;;
27632;SDS011;15046;50.930;13.334;2023-11-19T07:43:45;1.17;;;0.80;;
27632;SDS011;15046;50.930;13.334;2023-11-19T07:46:15;1.90;;;1.27;;
27632;SDS011;15046;50.930;13.334;2023-11-19T07:48:41;2.65;;;1.30;;
27632;SDS011;15046;50.930;13.334;2023-11-19T07:51:07;5.00;;;1.50;;
27632;SDS011;15046;50.930;13.334;2023-11-19T07:53:33;4.07;;;1.30;;
27632;SDS011;15046;50.930;13.334;2023-11-19T07:56:00;3.65;;;1.50;;
27632;SDS011;15046;50.930;13.334;2023-11-19T07:58:26;3.97;;;1.50;;
27632;SDS011;15046;50.930;13.334;2023-11-19T08:00:51;2.10;;;1.10;;
27632;SDS011;15046;50.930;13.334;2023-11-19T08:03:17;3.03;;;1.33;;
27632;SDS011;15046;50.930;13.334;2023-11-19T08:05:47;1.42;;;0.80;;
27632;SDS011;15046;50.930;13.334;2023-11-19T08:08:13;2.92;;;0.90;;
27632;SDS011;15046;50.930;13.334;2023-11-19T08:10:39;1.73;;;1.00;;
27632;SDS011;15046;50.930;13.334;2023-11-19T08:13:05;2.25;;;1.00;;
27632;SDS011;15046;50.930;13.334;2023-11-19T08:15:31;5.30;;;1.02;;
27632;SDS011;15046;50.930;13.334;2023-11-19T08:17:57;4.55;;;1.15;;
27632;SDS011;15046;50.930;13.334;2023-11-19T08:20:22;1.80;;;0.90;;
27632;SDS011;15046;50.930;13.334;2023-11-19T08:22:48;1.55;;;0.85;;
27632;SDS011;15046;50.930;13.334;2023-11-19T08:25:14;3.17;;;1.00;;
27632;SDS011;15046;50.930;13.334;2023-11-19T08:27:40;2.22;;;0.90;;
27632;SDS011;15046;50.930;13.334;2023-11-19T08:30:06;2.40;;;0.63;;
27632;SDS011;15046;50.930;13.334;2023-11-19T08:32:32;3.25;;;1.15;;
27632;SDS011;15046;50.930;13.334;2023-11-19T08:34:59;1.85;;;1.05;;
27632;SDS011;15046;50.930;13.334;2023-11-19T08:37:25;2.75;;;1.08;;
27632;SDS011;15046;50.930;13.334;2023-11-19T08:39:50;1.92;;;1.00;;
27632;SDS011;15046;50.930;13.334;2023-11-19T08:42:16;2.60;;;0.90;;
27632;SDS011;15046;50.930;13.334;2023-11-19T08:44:43;4.47;;;1.40;;
27632;SDS011;15046;50.930;13.334;2023-11-19T08:47:12;6.70;;;1.58;;
27632;SDS011;15046;50.930;13.334;2023-11-19T08:49:38;6.07;;;2.13;;
27632;SDS011;15046;50.930;13.334;2023-11-19T08:52:05;3.78;;;1.38;;
27632;SDS011;15046;50.930;13.334;2023-11-19T08:54:34;7.38;;;2.95;;
27632;SDS011;15046;50.930;13.334;2023-11-19T08:56:59;3.33;;;1.50;;
27632;SDS011;15046;50.930;13.334;2023-11-19T08:59:25;2.67;;;1.20;;
27632;SDS011;15046;50.930;13.334;2023-11-19T09:01:51;4.63;;;1.48;;
27632;SDS011;15046;50.930;13.334;2023-11-19T09:04:17;4.78;;;1.50;;
27632;SDS011;15046;50.930;13.334;2023-11-19T09:06:42;3.42;;;1.25;;
27632;SDS011;15046;50.930;13.334;2023-11-19T09:09:09;5.22;;;1.60;;
27632;SDS011;15046;50.930;13.334;2023-11-19T09:11:35;3.63;;;1.13;;
27632;SDS011;15046;50.930;13.334;2023-11-19T09:14:04;8.98;;;1.92;;
27632;SDS011;15046;50.930;13.334;2023-11-19T09:16:30;3.58;;;1.30;;
27632;SDS011;15046;50.930;13.334;2023-11-19T09:18:57;5.10;;;1.20;;
27632;SDS011;15046;50.930;13.334;2023-11-19T09:21:24;2.72;;;1.05;;
27632;SDS011;15046;50.930;13.334;2023-11-19T09:23:54;3.78;;;1.17;;
27632;SDS011;15046;50.930;13.334;2023-11-19T09:26:20;2.67;;;1.02;;
27632;SDS011;15046;50.930;13.334;2023-11-19T09:28:46;5.68;;;1.23;;
27632;SDS011;15046;50.930;13.334;2023-11-19T09:31:15;6.55;;;1.48;;
27632;SDS011;15046;50.930;13.334;2023-11-19T09:33:42;6.03;;;1.42;;
27632;SDS011;15046;50.930;13.334;2023-11-19T09:36:08;5.68;;;1.60;;
27632;SDS011;15046;50.930;13.334;2023-11-19T09:38:37;4.82;;;1.38;;
27632;SDS011;15046;50.930;13.334;2023-11-19T09:41:06;3.47;;;1.05;;
27632;SDS011;15046;50.930;13.334;2023-11-19T09:43:37;3.13;;;1.10;;
27632;SDS011;15046;50.930;13.334;2023-11-19T09:46:06;2.75;;;1.10;;
27632;SDS011;15046;50.930;13.334;2023-11-19T09:48:36;6.43;;;1.40;;
27632;SDS011;15046;50.930;13.334;2023-11-19T09:51:03;2.72;;;1.25;;
27632;SDS011;15046;50.930;13.334;2023-11-19T09:53:30;2.78;;;1.30;;
27632;SDS011;15046;50.930;13.334;2023-11-19T09:55:57;6.07;;;1.55;;
27632;SDS011;15046;50.930;13.334;2023-11-19T09:58:29;6.47;;;1.58;;
27632;SDS011;15046;50.930;13.334;2023-11-19T10:00:56;3.30;;;1.10;;
27632;SDS011;15046;50.930;13.334;2023-11-19T10:03:26;5.03;;;1.60;;
27632;SDS011;15046;50.930;13.334;2023-11-19T10:05:54;3.55;;;1.20;;
27632;SDS011;15046;50.930;13.334;2023-11-19T10:08:21;5.10;;;1.77;;
27632;SDS011;15046;50.930;13.334;2023-11-19T10:10:47;5.28;;;1.30;;
27632;SDS011;15046;50.930;13.334;2023-11-19T10:13:14;6.70;;;1.40;;
27632;SDS011;15046;50.930;13.334;2023-11-19T10:15:40;3.70;;;1.30;;
27632;SDS011;15046;50.930;13.334;2023-11-19T10:18:06;1.83;;;0.95;;
27632;SDS011;15046;50.930;13.334;2023-11-19T10:20:36;2.45;;;0.93;;
27632;SDS011;15046;50.930;13.334;2023-11-19T10:23:02;1.50;;;0.70;;
27632;SDS011;15046;50.930;13.334;2023-11-19T10:25:29;1.88;;;0.95;;
27632;SDS011;15046;50.930;13.334;2023-11-19T10:27:56;4.95;;;1.23;;
27632;SDS011;15046;50.930;13.334;2023-11-19T10:30:23;3.28;;;1.13;;
27632;SDS011;15046;50.930;13.334;2023-11-19T10:33:07;3.47;;;1.40;;
27632;SDS011;15046;50.930;13.334;2023-11-19T10:35:34;2.75;;;1.00;;
27632;SDS011;15046;50.930;13.334;2023-11-19T10:38:03;5.50;;;1.23;;
27632;SDS011;15046;50.930;13.334;2023-11-19T10:40:40;3.15;;;1.48;;
27632;SDS011;15046;50.930;13.334;2023-11-19T10:43:07;2.72;;;1.20;;
27632;SDS011;15046;50.930;13.334;2023-11-19T10:45:34;4.68;;;1.27;;
27632;SDS011;15046;50.930;13.334;2023-11-19T10:48:01;3.70;;;1.30;;
27632;SDS011;15046;50.930;13.334;2023-11-19T10:50:32;1.67;;;1.00;;
27632;SDS011;15046;50.930;13.334;2023-11-19T10:53:02;2.35;;;1.08;;
27632;SDS011;15046;50.930;13.334;2023-11-19T10:55:33;5.28;;;1.08;;
27632;SDS011;15046;50.930;13.334;2023-11-19T10:58:01;4.40;;;1.02;;
27632;SDS011;15046;50.930;13.334;2023-11-19T11:00:29;4.78;;;1.20;;
27632;SDS011;15046;50.930;13.334;2023-11-19T11:02:59;2.65;;;1.27;;
27632;SDS011;15046;50.930;13.334;2023-11-19T11:05:28;4.50;;;1.13;;
27632;SDS011;15046;50.930;13.334;2023-11-19T11:07:58;5.63;;;1.38;;
27632;SDS011;15046;50.930;13.334;2023-11-19T11:10:27;2.72;;;1.25;;
27632;SDS011;15046;50.930;13.334;2023-11-19T11:12:58;2.65;;;1.17;;
27632;SDS011;15046;50.930;13.334;2023-11-19T11:15:27;3.13;;;1.15;;
27632;SDS011;15046;50.930;13.334;2023-11-19T11:17:57;5.45;;;1.15;;
27632;SDS011;15046;50.930;13.334;2023-11-19T11:20:32;3.95;;;1.30;;
27632;SDS011;15046;50.930;13.334;2023-11-19T11:31:20;6.90;;;1.30;;
27632;SDS011;15046;50.930;13.334;2023-11-19T11:36:40;5.88;;;2.20;;
27632;SDS011;15046;50.930;13.334;2023-11-19T11:39:18;8.30;;;1.80;;
27632;SDS011;15046;50.930;13.334;2023-11-19T11:41:47;7.38;;;1.67;;
27632;SDS011;15046;50.930;13.334;2023-11-19T11:50:08;7.65;;;2.20;;
27632;SDS011;15046;50.930;13.334;2023-11-19T11:55:34;9.00;;;2.20;;
27632;SDS011;15046;50.930;13.334;2023-11-19T11:58:08;7.57;;;2.88;;
27632;SDS011;15046;50.930;13.334;2023-11-19T12:00:37;11.00;;;2.50;;
27632;SDS011;15046;50.930;13.334;2023-11-19T12:03:06;8.05;;;2.50;;
27632;SDS011;15046;50.930;13.334;2023-11-19T12:05:33;11.65;;;2.40;;
27632;SDS011;15046;50.930;13.334;2023-11-19T12:08:04;10.50;;;2.42;;
27632;SDS011;15046;50.930;13.334;2023-11-19T12:10:32;9.27;;;2.20;;
27632;SDS011;15046;50.930;13.334;2023-11-19T12:13:04;9.40;;;2.10;;
27632;SDS011;15046;50.930;13.334;2023-11-19T12:15:32;9.95;;;2.47;;
27632;SDS011;15046;50.930;13.334;2023-11-19T12:17:58;7.40;;;2.15;;
27632;SDS011;15046;50.930;13.334;2023-11-19T12:20:24;5.47;;;2.25;;
27632;SDS011;15046;50.930;13.334;2023-11-19T12:22:52;6.78;;;2.00;;
27632;SDS011;15046;50.930;13.334;2023-11-19T12:25:19;11.73;;;2.90;;
27632;SDS011;15046;50.930;13.334;2023-11-19T12:27:46;7.20;;;2.08;;
27632;SDS011;15046;50.930;13.334;2023-11-19T12:30:22;7.28;;;2.03;;
27632;SDS011;15046;50.930;13.334;2023-11-19T12:32:49;7.13;;;2.55;;
27632;SDS011;15046;50.930;13.334;2023-11-19T12:35:15;6.38;;;2.42;;
27632;SDS011;15046;50.930;13.334;2023-11-19T12:37:41;8.10;;;2.45;;
27632;SDS011;15046;50.930;13.334;2023-11-19T12:42:42;9.88;;;2.53;;
27632;SDS011;15046;50.930;13.334;2023-11-19T12:45:09;13.55;;;3.53;;
27632;SDS011;15046;50.930;13.334;2023-11-19T12:47:39;12.17;;;3.20;;
27632;SDS011;15046;50.930;13.334;2023-11-19T12:50:05;13.57;;;3.80;;
27632;SDS011;15046;50.930;13.334;2023-11-19T12:52:33;13.07;;;3.60;;
27632;SDS011;15046;50.930;13.334;2023-11-19T12:55:00;13.27;;;3.95;;
27632;SDS011;15046;50.930;13.334;2023-11-19T12:57:39;11.85;;;3.10;;
27632;SDS011;15046;50.930;13.334;2023-11-19T13:00:06;11.82;;;3.45;;
27632;SDS011;15046;50.930;13.334;2023-11-19T13:02:45;12.10;;;3.25;;
27632;SDS011;15046;50.930;13.334;2023-11-19T13:05:28;12.90;;;3.45;;
27632;SDS011;15046;50.930;13.334;2023-11-19T13:10:54;11.20;;;2.88;;
27632;SDS011;15046;50.930;13.334;2023-11-19T13:13:20;13.43;;;3.10;;
27632;SDS011;15046;50.930;13.334;2023-11-19T13:15:46;11.38;;;3.38;;
27632;SDS011;15046;50.930;13.334;2023-11-19T13:18:12;14.98;;;2.95;;
27632;SDS011;15046;50.930;13.334;2023-11-19T13:20:41;11.02;;;3.10;;
27632;SDS011;15046;50.930;13.334;2023-11-19T13:23:07;9.52;;;2.30;;
27632;SDS011;15046;50.930;13.334;2023-11-19T13:25:33;15.80;;;3.13;;
27632;SDS011;15046;50.930;13.334;2023-11-19T13:27:59;13.52;;;3.03;;
27632;SDS011;15046;50.930;13.334;2023-11-19T13:30:25;8.90;;;2.92;;
27632;SDS011;15046;50.930;13.334;2023-11-19T13:32:52;11.70;;;2.88;;
27632;SDS011;15046;50.930;13.334;2023-11-19T13:35:20;14.15;;;3.22;;
27632;SDS011;15046;50.930;13.334;2023-11-19T13:37:48;11.43;;;2.63;;
27632;SDS011;15046;50.930;13.334;2023-11-19T13:40:35;14.43;;;3.63;;
27632;SDS011;15046;50.930;13.334;2023-11-19T13:43:05;11.10;;;2.78;;
27632;SDS011;15046;50.930;13.334;2023-11-19T13:45:30;14.05;;;3.53;;
27632;SDS011;15046;50.930;13.334;2023-11-19T13:47:57;11.90;;;2.83;;
27632;SDS011;15046;50.930;13.334;2023-11-19T13:50:23;11.40;;;3.25;;
27632;SDS011;15046;50.930;13.334;2023-11-19T13:52:48;8.32;;;2.30;;
27632;SDS011;15046;50.930;13.334;2023-11-19T13:55:14;11.68;;;2.92;;
27632;SDS011;15046;50.930;13.334;2023-11-19T13:57:40;15.23;;;3.22;;
27632;SDS011;15046;50.930;13.334;2023-11-19T14:00:08;11.70;;;2.55;;
27632;SDS011;15046;50.930;13.334;2023-11-19T14:02:39;15.75;;;3.60;;
27632;SDS011;15046;50.930;13.334;2023-11-19T14:05:05;10.48;;;2.78;;
27632;SDS011;15046;50.930;13.334;2023-11-19T14:07:32;16.20;;;3.15;;
27632;SDS011;15046;50.930;13.334;2023-11-19T14:09:58;12.27;;;3.08;;
27632;SDS011;15046;50.930;13.334;2023-11-19T14:12:24;16.45;;;3.95;;
27632;SDS011;15046;50.930;13.334;2023-11-19T14:14:50;14.88;;;3.08;;
27632;SDS011;15046;50.930;13.334;2023-11-19T14:17:16;10.60;;;2.58;;
27632;SDS011;15046;50.930;13.334;2023-11-19T14:19:43;13.38;;;2.92;;
27632;SDS011;15046;50.930;13.334;2023-11-19T14:22:10;13.25;;;2.90;;
27632;SDS011;15046;50.930;13.334;2023-11-19T14:24:36;10.02;;;2.42;;
27632;SDS011;15046;50.930;13.334;2023-11-19T14:27:03;13.52;;;3.25;;
27632;SDS011;15046;50.930;13.334;2023-11-19T14:29:29;15.00;;;5.88;;
27632;SDS011;15046;50.930;13.334;2023-11-19T14:31:55;17.85;;;4.30;;
27632;SDS011;15046;50.930;13.334;2023-11-19T14:34:21;13.55;;;3.63;;
27632;SDS011;15046;50.930;13.334;2023-11-19T14:36:47;18.90;;;4.55;;
27632;SDS011;15046;50.930;13.334;2023-11-19T14:39:14;13.05;;;3.58;;
27632;SDS011;15046;50.930;13.334;2023-11-19T14:41:42;18.48;;;3.50;;
27632;SDS011;15046;50.930;13.334;2023-11-19T14:44:09;17.23;;;3.80;;
27632;SDS011;15046;50.930;13.334;2023-11-19T14:46:35;16.30;;;4.05;;
27632;SDS011;15046;50.930;13.334;2023-11-19T14:49:01;11.30;;;3.90;;
27632;SDS011;15046;50.930;13.334;2023-11-19T14:51:29;13.20;;;3.78;;
27632;SDS011;15046;50.930;13.334;2023-11-19T14:53:55;14.07;;;3.75;;
27632;SDS011;15046;50.930;13.334;2023-11-19T14:56:21;15.98;;;4.13;;
27632;SDS011;15046;50.930;13.334;2023-11-19T14:58:47;11.02;;;3.58;;
27632;SDS011;15046;50.930;13.334;2023-11-19T15:01:15;10.98;;;2.60;;
27632;SDS011;15046;50.930;13.334;2023-11-19T15:03:41;15.02;;;3.50;;
27632;SDS011;15046;50.930;13.334;2023-11-19T15:06:07;15.98;;;3.90;;
27632;SDS011;15046;50.930;13.334;2023-11-19T15:08:33;13.82;;;3.03;;